Aérodrome :
LOGIN :

S'inscrire | Disclaimer

   EN    FR    IT 

 










Légende :    VFR   VFR Marginal   IFR   IFR Intensif   IFR Très Intensif
Visi : 
Plafond : 
>= 8 km
>= 3000ft
5 à 8 km
1000 à 3000 ft
1500m à 5 km
500 à 1000 ft
800 à 1500m
200 à 500 ft
< 800m
< 200 ft
Symboles :   Orages  Brouillard  Fortes neiges  Fortes précipitations  Vent > 20 kt
SIGMETs :   Divers  Orages  Givrage  Turbulence  Onde Orograph.  Cendres Volcan.






- Altitude de l'aérodrome : 240 ft
- Code IATA : VLC


LEVC - Valencia Manises

DERNIER METAR :
  • 141730Z 16007KT 9999 FEW020 SCT050 23/19 Q1011 NOSIG

METARs EXPIRÉS :
  • 141700Z 14006KT 9999 FEW020 SCT050 23/18 Q1011 NOSIG
  • 141630Z 16007KT 140V200 9999 FEW020 SCT050 24/18 Q1011 NOSIG
  • 141600Z 17007KT 140V210 9999 FEW020 SCT050 24/18 Q1011 NOSIG
  • 141530Z 15006KT 9999 FEW025 24/19 Q1011 NOSIG
  • 141500Z 15006KT 9999 FEW025 24/19 Q1011 NOSIG

TAF TAF LEVC
Valide du 14 à 18h jusqu'au 15 à 18h UTC


141700Z 1418/1518 27008KT 9999 FEW030 TX26/1512Z TN14/1506Z
BECMG 1515/1517 VRB03KT



MET'MAP, la Météo Aéronautique d'un coup d'oeil ! - Copyright ORBIFLY Décembre 2007 - Disclaimer

ORBIFLY MET'MAP TEAM :

Programmation & Développement : Alexandra Zaïnal
Conception & Développement : Baudouin d'Aumeries
Co-Programmation & Développement : Marc-Olivier Méhu
Soutien technique & logistique : Manuel Goepfert

Contact : metmap@orbifly.com




SOURCES & CREDITS :

   NOAA